Time;durP1;ratioP1;P1;durP2;ratioP2;P2;SDS_P1;SDS_P2;PMS_P1;PMS_P2;Temp;Humidity;BMP_temperature;BMP_pressure;BME280_temperature;BME280_humidity;BME280_pressure;Samples;Min_cycle;Max_cycle;Signal;HPM_P1;HPM_P2
2022/03/30 00:01:29;;;;;;;23.23;7.22;;;12.30;32.50;;;;;;5033145;28;20226;-87
2022/03/30 00:04:05;;;;;;;28.40;7.15;;;12.20;33.10;;;;;;5040114;28;20346;-86
2022/03/30 00:06:32;;;;;;;29.75;7.38;;;12.20;34.00;;;;;;5041604;28;20214;-87
2022/03/30 00:09:09;;;;;;;23.58;7.53;;;12.10;33.60;;;;;;5033801;28;20202;-87
2022/03/30 00:11:40;;;;;;;32.13;7.30;;;12.10;34.00;;;;;;5046392;28;20202;-87
2022/03/30 00:14:07;;;;;;;26.88;7.15;;;12.00;34.40;;;;;;5043599;28;20246;-88
2022/03/30 00:16:35;;;;;;;25.52;7.25;;;12.00;34.90;;;;;;5042795;28;20206;-87
2022/03/30 00:19:02;;;;;;;32.78;8.05;;;12.00;35.60;;;;;;5041227;28;20233;-86
2022/03/30 00:21:30;;;;;;;24.35;7.90;;;12.00;34.90;;;;;;5038804;28;20207;-87
2022/03/30 00:23:57;;;;;;;29.00;7.75;;;12.00;35.70;;;;;;5049737;28;20247;-87
2022/03/30 00:26:26;;;;;;;25.42;7.18;;;12.00;36.50;;;;;;5042518;28;20210;-87
2022/03/30 00:28:53;;;;;;;21.38;7.15;;;12.00;36.80;;;;;;5035155;28;20230;-86
2022/03/30 00:31:21;;;;;;;22.83;7.18;;;11.90;35.80;;;;;;5040448;28;20202;-86
2022/03/30 00:33:51;;;;;;;25.55;7.60;;;11.90;37.10;;;;;;5036644;28;20286;-87
2022/03/30 00:36:19;;;;;;;23.77;6.90;;;11.90;36.00;;;;;;5042467;28;20793;-86
2022/03/30 00:38:46;;;;;;;28.02;6.85;;;11.90;36.30;;;;;;5039341;28;20281;-87
2022/03/30 00:41:14;;;;;;;26.77;7.38;;;11.90;36.50;;;;;;5027626;28;20649;-86
2022/03/30 00:43:42;;;;;;;23.50;7.25;;;11.90;36.30;;;;;;5018065;28;20657;-88
2022/03/30 00:46:12;;;;;;;23.15;6.95;;;11.90;36.50;;;;;;5033578;28;20234;-87
2022/03/30 00:48:48;;;;;;;27.15;7.43;;;11.80;34.70;;;;;;5037796;28;20211;-87
2022/03/30 00:51:15;;;;;;;28.60;7.32;;;11.80;37.10;;;;;;5044970;28;20230;-87
2022/03/30 00:53:43;;;;;;;33.28;7.25;;;11.80;35.60;;;;;;5040118;28;20549;-86
2022/03/30 00:56:10;;;;;;;23.27;7.50;;;11.80;34.90;;;;;;5036061;28;20322;-88
2022/03/30 00:58:38;;;;;;;37.50;8.05;;;11.70;35.20;;;;;;5042368;28;20217;-87
2022/03/30 01:01:07;;;;;;;27.92;8.18;;;11.70;36.00;;;;;;5030259;28;20282;-87
2022/03/30 01:03:35;;;;;;;21.38;6.78;;;11.70;35.30;;;;;;5041065;28;20207;-86
2022/03/30 01:06:04;;;;;;;19.00;7.30;;;11.70;35.40;;;;;;5034921;28;20234;-86
2022/03/30 01:08:31;;;;;;;28.42;7.70;;;11.70;35.50;;;;;;5040534;28;20218;-86
2022/03/30 01:10:59;;;;;;;19.15;7.35;;;11.70;35.40;;;;;;5036600;28;20229;-87
2022/03/30 01:13:26;;;;;;;30.75;8.00;;;11.70;36.10;;;;;;5041925;28;20210;-87
2022/03/30 01:15:53;;;;;;;26.70;7.78;;;11.70;35.30;;;;;;5038857;28;20241;-87
2022/03/30 01:18:22;;;;;;;29.30;7.72;;;11.70;34.60;;;;;;5039430;28;20209;-86
2022/03/30 01:20:52;;;;;;;23.75;7.45;;;11.80;34.80;;;;;;5040867;28;20234;-87
2022/03/30 01:23:19;;;;;;;33.80;8.07;;;11.80;35.80;;;;;;5046153;28;20208;-87
2022/03/30 01:25:46;;;;;;;24.30;8.32;;;11.80;35.80;;;;;;5040524;28;20229;-88
2022/03/30 01:28:14;;;;;;;22.15;7.93;;;11.70;36.60;;;;;;5037770;28;20222;-87
2022/03/30 01:33:27;;;;;;;24.83;7.38;;;11.70;37.40;;;;;;5058400;28;20205;-86
2022/03/30 01:35:55;;;;;;;27.17;8.30;;;11.70;36.60;;;;;;5041353;28;20230;-87
2022/03/30 01:38:23;;;;;;;26.67;7.82;;;11.70;36.10;;;;;;5035331;28;20205;-87
2022/03/30 01:40:50;;;;;;;27.60;7.80;;;11.80;36.00;;;;;;5038900;28;20725;-86
2022/03/30 01:43:17;;;;;;;24.70;7.70;;;11.70;36.00;;;;;;5034366;28;20226;-86
2022/03/30 01:45:44;;;;;;;23.10;8.32;;;11.80;36.20;;;;;;5042031;28;20565;-86
2022/03/30 01:48:11;;;;;;;27.20;8.15;;;11.70;36.10;;;;;;5019349;28;20233;-87
2022/03/30 01:50:39;;;;;;;32.25;8.07;;;11.70;37.40;;;;;;5041670;28;20244;-86
2022/03/30 01:53:08;;;;;;;28.95;7.75;;;11.60;37.10;;;;;;5041851;28;20290;-87
2022/03/30 01:55:35;;;;;;;26.48;8.50;;;11.50;39.00;;;;;;5037388;28;20258;-87
2022/03/30 01:58:02;;;;;;;29.67;8.43;;;11.50;38.30;;;;;;5034021;28;20289;-87
2022/03/30 02:00:29;;;;;;;31.10;8.75;;;11.50;38.10;;;;;;5048351;28;20233;-87
2022/03/30 02:02:56;;;;;;;23.70;8.07;;;11.30;39.20;;;;;;5051583;28;20258;-87
2022/03/30 02:05:24;;;;;;;27.80;7.95;;;11.20;40.20;;;;;;5043310;28;20222;-87
2022/03/30 02:07:51;;;;;;;25.90;7.55;;;11.20;40.60;;;;;;5038639;28;20210;-86
2022/03/30 02:10:19;;;;;;;21.48;7.55;;;11.20;40.60;;;;;;5039250;28;20234;-86
2022/03/30 02:12:47;;;;;;;26.00;8.15;;;11.30;40.70;;;;;;5050781;28;20202;-87
2022/03/30 02:15:14;;;;;;;28.75;8.63;;;11.50;39.40;;;;;;5051845;28;20289;-87
2022/03/30 02:17:42;;;;;;;28.17;9.30;;;11.50;39.30;;;;;;5035980;28;20200;-86
2022/03/30 02:20:11;;;;;;;35.35;10.95;;;11.20;39.90;;;;;;5032692;28;20233;-86
2022/03/30 02:22:39;;;;;;;27.67;8.23;;;11.20;41.50;;;;;;5037943;28;20202;-86
2022/03/30 02:25:07;;;;;;;27.65;8.00;;;11.00;42.70;;;;;;5040369;28;20227;-86
2022/03/30 02:27:38;;;;;;;37.33;9.13;;;11.10;42.30;;;;;;5041528;28;20264;-87
2022/03/30 02:30:07;;;;;;;27.80;7.97;;;11.00;43.60;;;;;;5040706;28;20247;-86
2022/03/30 02:32:35;;;;;;;23.40;8.18;;;11.00;43.60;;;;;;5031501;28;20202;-87
2022/03/30 02:35:02;;;;;;;27.70;8.27;;;11.00;43.60;;;;;;5039563;28;20227;-86
2022/03/30 02:37:29;;;;;;;25.73;8.68;;;11.00;43.40;;;;;;5042067;28;20206;-87
2022/03/30 02:39:56;;;;;;;27.40;9.10;;;11.10;43.10;;;;;;5032450;28;20230;-87
2022/03/30 02:42:23;;;;;;;26.00;8.60;;;11.10;43.20;;;;;;5043367;28;20190;-87
2022/03/30 02:44:52;;;;;;;31.00;9.20;;;11.10;43.80;;;;;;5010977;28;20229;-86
2022/03/30 02:48:17;;;;;;;31.20;8.45;;;11.10;44.40;;;;;;5041843;28;20221;-87
2022/03/30 02:50:07;;;;;;;28.65;8.68;;;11.00;44.10;;;;;;5041736;28;20253;-86
2022/03/30 02:52:35;;;;;;;31.80;8.77;;;11.00;44.50;;;;;;5027728;28;20199;-88
2022/03/30 02:55:01;;;;;;;29.65;8.32;;;11.00;44.10;;;;;;5037944;28;20266;-87
2022/03/30 02:57:29;;;;;;;30.50;8.18;;;10.90;44.50;;;;;;5035896;28;20561;-86
2022/03/30 02:59:57;;;;;;;22.63;7.60;;;10.80;45.10;;;;;;5015662;28;20706;-86
2022/03/30 03:02:24;;;;;;;30.77;7.50;;;10.90;45.30;;;;;;5039969;28;20202;-86
2022/03/30 03:04:51;;;;;;;21.02;7.80;;;10.90;44.90;;;;;;5039078;28;20697;-86
2022/03/30 03:07:18;;;;;;;26.73;8.60;;;10.90;45.30;;;;;;5040401;28;20207;-87
2022/03/30 03:09:46;;;;;;;23.33;7.95;;;10.90;45.30;;;;;;5025918;28;20225;-86
2022/03/30 03:12:13;;;;;;;36.72;8.85;;;10.80;46.20;;;;;;5039719;28;20653;-86
2022/03/30 03:14:40;;;;;;;29.77;8.63;;;10.80;46.80;;;;;;5038187;28;20241;-86
2022/03/30 03:17:08;;;;;;;27.40;8.02;;;10.70;47.50;;;;;;5038826;28;20289;-86
2022/03/30 03:19:36;;;;;;;23.55;7.60;;;10.70;47.50;;;;;;5037899;28;20248;-86
2022/03/30 03:22:03;;;;;;;31.42;8.93;;;10.70;48.60;;;;;;5029741;28;20940;-87
2022/03/30 03:24:30;;;;;;;26.73;8.57;;;10.70;47.40;;;;;;5039702;28;20246;-87
2022/03/30 03:26:57;;;;;;;24.75;8.15;;;10.60;47.40;;;;;;5035849;28;20203;-87
2022/03/30 03:29:25;;;;;;;27.00;8.05;;;10.50;47.30;;;;;;5041924;28;20696;-87
2022/03/30 03:31:52;;;;;;;26.70;7.53;;;10.60;47.30;;;;;;5043022;28;20286;-86
2022/03/30 03:34:20;;;;;;;28.20;8.68;;;10.60;47.40;;;;;;5037572;28;20273;-86
2022/03/30 03:36:47;;;;;;;29.77;8.35;;;10.50;47.30;;;;;;5036095;28;20662;-87
2022/03/30 03:39:14;;;;;;;23.83;7.65;;;10.60;47.40;;;;;;5030303;28;20214;-86
2022/03/30 03:41:43;;;;;;;28.05;7.75;;;10.60;47.60;;;;;;5036000;28;20573;-86
2022/03/30 03:44:11;;;;;;;22.02;8.05;;;10.50;48.40;;;;;;5035244;28;20238;-87
2022/03/30 03:46:38;;;;;;;27.58;8.43;;;10.40;48.60;;;;;;5041837;28;20669;-86
2022/03/30 03:49:05;;;;;;;19.52;8.30;;;10.40;49.70;;;;;;5037258;28;20664;-86
2022/03/30 03:51:34;;;;;;;24.90;7.88;;;10.40;50.20;;;;;;5038734;28;20199;-87
2022/03/30 03:54:01;;;;;;;36.35;8.45;;;10.40;50.60;;;;;;5029737;28;20209;-87
2022/03/30 03:56:28;;;;;;;25.83;8.73;;;10.40;50.50;;;;;;5032497;28;20282;-87
2022/03/30 03:58:55;;;;;;;30.88;7.85;;;10.40;50.80;;;;;;5031439;28;20624;-86
2022/03/30 04:01:22;;;;;;;31.77;8.15;;;10.50;50.70;;;;;;5038564;28;20228;-88
2022/03/30 04:03:49;;;;;;;21.92;8.65;;;10.40;51.50;;;;;;5024270;28;20203;-87
2022/03/30 04:06:17;;;;;;;25.70;8.43;;;10.40;52.20;;;;;;5032027;28;20195;-86
2022/03/30 04:08:45;;;;;;;26.52;7.43;;;10.30;49.80;;;;;;5040701;28;20212;-87
2022/03/30 04:11:13;;;;;;;28.40;8.25;;;10.30;50.70;;;;;;5035113;28;20235;-86
2022/03/30 04:13:41;;;;;;;31.20;8.60;;;10.20;51.50;;;;;;5035401;28;20241;-86
2022/03/30 04:16:08;;;;;;;27.08;8.15;;;10.20;50.40;;;;;;5036068;28;20223;-87
2022/03/30 04:18:35;;;;;;;29.40;8.07;;;10.20;50.10;;;;;;5035997;28;20267;-89
2022/03/30 04:21:02;;;;;;;36.35;7.50;;;10.20;49.40;;;;;;5038002;28;20227;-86
2022/03/30 04:23:29;;;;;;;29.05;8.18;;;10.20;49.30;;;;;;5030097;28;20195;-87
2022/03/30 04:25:58;;;;;;;36.65;8.50;;;10.20;50.50;;;;;;5031275;28;20227;-88
2022/03/30 04:28:25;;;;;;;28.15;8.52;;;10.10;49.10;;;;;;5044564;28;20222;-87
2022/03/30 04:30:52;;;;;;;22.90;8.00;;;10.00;49.70;;;;;;5033630;28;20599;-86
2022/03/30 04:33:19;;;;;;;26.85;6.95;;;10.00;50.10;;;;;;5015452;28;20261;-86
2022/03/30 04:35:46;;;;;;;26.85;7.85;;;10.00;50.30;;;;;;5032775;28;20290;-86
2022/03/30 04:38:14;;;;;;;26.33;7.63;;;10.00;52.00;;;;;;5039584;28;20203;-89
2022/03/30 04:40:48;;;;;;;26.98;8.13;;;10.00;50.60;;;;;;5029580;28;20716;-86
2022/03/30 04:43:16;;;;;;;28.42;7.90;;;10.00;51.70;;;;;;5036973;28;20281;-87
2022/03/30 04:45:43;;;;;;;31.30;8.45;;;10.00;51.40;;;;;;5031112;28;20233;-85
2022/03/30 04:48:10;;;;;;;31.65;8.27;;;10.00;52.80;;;;;;5031378;28;20294;-85
2022/03/30 04:50:38;;;;;;;26.92;7.85;;;10.00;52.40;;;;;;5036885;28;20222;-87
2022/03/30 04:53:05;;;;;;;19.33;7.70;;;10.10;51.80;;;;;;5035621;28;20289;-86
2022/03/30 04:55:38;;;;;;;24.73;8.25;;;10.10;50.20;;;;;;5031588;28;20238;-90
2022/03/30 04:58:05;;;;;;;26.67;8.90;;;10.20;49.10;;;;;;5040221;28;20293;-88
2022/03/30 05:00:34;;;;;;;23.50;8.23;;;10.10;50.10;;;;;;5037386;28;20280;-89
2022/03/30 05:03:03;;;;;;;23.98;8.18;;;10.10;49.80;;;;;;5030009;28;20205;-87
2022/03/30 05:05:30;;;;;;;33.22;9.05;;;10.10;50.20;;;;;;5027775;28;20222;-87
2022/03/30 05:07:57;;;;;;;23.73;8.20;;;10.10;50.00;;;;;;5038748;28;20304;-87
2022/03/30 05:10:25;;;;;;;27.30;7.82;;;10.10;49.50;;;;;;5038447;28;20250;-88
2022/03/30 05:12:54;;;;;;;31.75;8.50;;;10.20;47.00;;;;;;5033152;28;20202;-87
2022/03/30 05:15:23;;;;;;;21.35;6.97;;;10.30;48.20;;;;;;5030544;28;20214;-86
2022/03/30 05:17:51;;;;;;;29.85;8.10;;;10.40;47.20;;;;;;5035915;28;20213;-87
2022/03/30 05:20:19;;;;;;;26.52;8.45;;;10.50;48.00;;;;;;5034453;28;20648;-87
2022/03/30 05:22:47;;;;;;;27.98;8.13;;;10.50;47.30;;;;;;5038116;28;20205;-87
2022/03/30 05:25:15;;;;;;;27.77;8.63;;;10.50;47.40;;;;;;5019274;28;20224;-88
2022/03/30 05:27:42;;;;;;;27.83;8.43;;;10.50;47.30;;;;;;5032999;28;20308;-89
2022/03/30 05:30:11;;;;;;;22.55;8.00;;;10.50;47.30;;;;;;5029321;28;20233;-88
2022/03/30 05:32:38;;;;;;;28.23;8.02;;;10.60;47.40;;;;;;5022718;28;20461;-88
2022/03/30 05:35:21;;;;;;;26.63;7.50;;;10.60;47.40;;;;;;5032354;28;20237;-88
2022/03/30 05:37:49;;;;;;;23.08;7.60;;;10.70;47.40;;;;;;5044399;28;20281;-88
2022/03/30 05:40:17;;;;;;;23.40;8.45;;;10.70;47.10;;;;;;5052085;28;20286;-90
2022/03/30 05:43:04;;;;;;;35.88;8.00;;;10.80;46.70;;;;;;5035180;28;20208;-88
2022/03/30 05:45:31;;;;;;;30.45;8.05;;;10.90;44.60;;;;;;5042712;28;20302;-88
2022/03/30 05:47:59;;;;;;;27.23;7.78;;;11.00;44.60;;;;;;5044704;28;20222;-88
2022/03/30 05:50:28;;;;;;;32.67;8.13;;;11.10;43.20;;;;;;5020198;28;20277;-88
2022/03/30 05:52:56;;;;;;;30.15;8.30;;;11.00;42.70;;;;;;5055832;28;20209;-88
2022/03/30 05:55:23;;;;;;;27.15;8.15;;;10.90;43.80;;;;;;5012806;28;20239;-88
2022/03/30 05:57:50;;;;;;;24.70;7.97;;;10.90;44.50;;;;;;5035978;28;20190;-88
2022/03/30 06:00:18;;;;;;;23.35;8.13;;;11.00;43.30;;;;;;5043576;28;20595;-87
2022/03/30 06:02:47;;;;;;;29.45;8.63;;;11.20;42.50;;;;;;5054237;28;20318;-88
2022/03/30 06:05:14;;;;;;;25.15;7.82;;;11.40;42.70;;;;;;5044890;28;20313;-88
2022/03/30 06:07:44;;;;;;;24.90;7.90;;;11.40;41.80;;;;;;5046196;28;20214;-88
2022/03/30 06:10:12;;;;;;;24.45;8.57;;;11.50;41.50;;;;;;5034614;28;20235;-88
2022/03/30 06:12:39;;;;;;;20.92;7.68;;;11.50;42.90;;;;;;5043937;28;20238;-88
2022/03/30 06:15:07;;;;;;;22.10;7.70;;;11.60;40.30;;;;;;5036190;28;20327;-88
2022/03/30 06:17:35;;;;;;;22.67;7.82;;;11.80;38.80;;;;;;5044940;28;20203;-89
2022/03/30 06:20:04;;;;;;;24.50;8.00;;;11.90;37.80;;;;;;5041264;28;20230;-91
2022/03/30 06:22:31;;;;;;;23.77;8.63;;;12.10;36.90;;;;;;5045593;28;20630;-90
2022/03/30 06:25:00;;;;;;;22.48;7.68;;;12.10;36.40;;;;;;5043639;28;20225;-88
2022/03/30 06:27:43;;;;;;;23.23;8.43;;;12.20;36.10;;;;;;5036789;28;20233;-87
2022/03/30 06:30:12;;;;;;;24.77;8.63;;;12.40;35.60;;;;;;5047580;28;20601;-87
2022/03/30 06:32:39;;;;;;;29.02;9.20;;;12.50;35.20;;;;;;5035901;28;20210;-88
2022/03/30 07:15:55;;;;;;;32.30;7.38;;;13.60;29.80;;;;;;4798049;29;20308;-86
2022/03/30 14:04:33;;;;;;;19.17;9.77;;;12.50;82.50;;;;;;6266357;22;20208;-90
2022/03/30 14:07:00;;;;;;;29.63;9.77;;;12.70;82.50;;;;;;5030495;28;20207;-89
2022/03/30 14:13:07;;;;;;;25.95;10.38;;;12.60;81.80;;;;;;5010168;28;20176;-90
2022/03/30 14:15:39;;;;;;;28.52;10.95;;;12.80;82.60;;;;;;5018617;28;20674;-88
2022/03/30 14:18:08;;;;;;;20.42;10.00;;;12.70;82.40;;;;;;5024517;28;20191;-89
2022/03/30 14:20:47;;;;;;;27.50;10.35;;;12.80;81.80;;;;;;5004507;28;20215;-86
2022/03/30 14:23:52;;;;;;;20.95;10.18;;;12.70;83.10;;;;;;5023600;28;20282;-86
2022/03/30 14:26:24;;;;;;;23.45;10.45;;;12.70;83.90;;;;;;5024353;28;20242;-87
2022/03/30 14:28:51;;;;;;;23.88;11.07;;;12.60;83.90;;;;;;5039513;28;20219;-86
2022/03/30 14:31:18;;;;;;;21.73;10.88;;;12.60;84.10;;;;;;5039098;28;20233;-86
2022/03/30 14:34:28;;;;;;;27.00;10.88;;;12.50;84.90;;;;;;5043531;28;20229;-87
2022/03/30 14:36:56;;;;;;;21.27;10.45;;;12.30;83.30;;;;;;5051990;28;20624;-86
2022/03/30 14:39:23;;;;;;;23.20;10.80;;;12.10;81.90;;;;;;5048534;28;20230;-86
2022/03/30 14:41:50;;;;;;;19.42;11.02;;;12.00;80.80;;;;;;5026720;28;20306;-86
2022/03/30 14:44:18;;;;;;;29.52;11.40;;;12.00;83.50;;;;;;5037489;28;20237;-88
2022/03/30 14:46:45;;;;;;;23.95;10.23;;;12.10;81.50;;;;;;5053160;28;20201;-89
2022/03/30 14:49:12;;;;;;;22.67;11.00;;;12.20;82.20;;;;;;5024280;28;20202;-90
2022/03/30 14:51:39;;;;;;;19.65;11.18;;;12.20;81.60;;;;;;5024996;28;20281;-91
2022/03/30 14:56:49;;;;;;;18.63;10.65;;;12.30;79.60;;;;;;5044746;28;20852;-88
2022/03/30 14:59:50;;;;;;;21.20;11.02;;;12.20;79.70;;;;;;5041616;28;20230;-89
2022/03/30 15:02:18;;;;;;;20.23;10.65;;;12.10;81.10;;;;;;5046089;28;20211;-89
2022/03/30 15:04:45;;;;;;;21.85;10.68;;;12.20;80.60;;;;;;5041798;28;20262;-89
2022/03/30 15:07:39;;;;;;;22.42;10.65;;;12.20;79.30;;;;;;5024271;28;20234;-90
2022/03/30 15:10:12;;;;;;;18.15;10.20;;;12.10;81.80;;;;;;5033640;28;20252;-89
2022/03/30 15:12:40;;;;;;;20.40;10.98;;;12.20;81.00;;;;;;5027458;28;20248;-90
2022/03/30 15:15:09;;;;;;;18.40;10.73;;;12.20;81.40;;;;;;5025434;28;20235;-90
2022/03/30 15:17:49;;;;;;;21.98;11.02;;;12.10;80.90;;;;;;5005140;28;20218;-90
2022/03/30 15:21:09;;;;;;;22.23;11.65;;;12.10;82.20;;;;;;5046806;28;20214;-90
2022/03/30 15:24:06;;;;;;;17.30;10.95;;;11.90;85.80;;;;;;5021735;28;20222;-88
2022/03/30 15:26:39;;;;;;;17.95;10.70;;;12.10;85.30;;;;;;5007501;28;20208;-88
2022/03/30 15:29:07;;;;;;;20.42;11.93;;;12.30;86.10;;;;;;5017841;28;20226;-88
2022/03/30 15:31:43;;;;;;;25.15;11.23;;;12.40;83.50;;;;;;5018739;28;20223;-88
2022/03/30 15:34:10;;;;;;;17.30;11.55;;;12.50;82.70;;;;;;5019963;28;20646;-90
2022/03/30 15:36:37;;;;;;;20.00;11.52;;;12.30;81.40;;;;;;5019633;28;20215;-90
2022/03/30 15:39:07;;;;;;;18.02;11.30;;;12.10;83.90;;;;;;5012855;28;20204;-90
2022/03/30 15:41:50;;;;;;;22.02;11.27;;;12.10;84.40;;;;;;5039807;28;20218;-89
2022/03/30 15:44:21;;;;;;;18.40;10.90;;;12.30;83.70;;;;;;5037870;28;20230;-90
2022/03/30 15:46:48;;;;;;;20.20;11.20;;;12.30;84.00;;;;;;5043178;28;20282;-89
2022/03/30 15:49:15;;;;;;;22.63;11.52;;;12.30;83.20;;;;;;5019506;28;20320;-89
2022/03/30 15:51:43;;;;;;;20.65;11.35;;;12.30;81.90;;;;;;5022161;28;20202;-88
2022/03/30 15:54:12;;;;;;;20.38;11.50;;;12.20;83.10;;;;;;5019790;28;20229;-93
2022/03/30 15:56:43;;;;;;;21.88;11.43;;;12.20;83.10;;;;;;5014907;28;20202;-87
2022/03/30 15:59:12;;;;;;;21.08;11.15;;;12.00;83.40;;;;;;5017818;28;20295;-90
2022/03/30 16:01:44;;;;;;;23.60;11.40;;;12.10;85.40;;;;;;5010054;28;20214;-88
2022/03/30 16:04:51;;;;;;;23.95;12.10;;;12.00;83.60;;;;;;5023735;28;20282;-92
2022/03/30 16:07:21;;;;;;;15.52;10.50;;;11.90;84.80;;;;;;5044940;28;20605;-88
2022/03/30 16:09:48;;;;;;;21.10;11.98;;;12.00;86.50;;;;;;5043133;28;20257;-89
2022/03/30 16:12:48;;;;;;;25.40;11.45;;;12.10;86.60;;;;;;5044587;28;20235;-88
2022/03/30 16:15:17;;;;;;;25.00;11.00;;;12.20;84.90;;;;;;5035749;28;20368;-89
2022/03/30 16:17:51;;;;;;;20.27;11.15;;;12.10;85.00;;;;;;5044445;28;20209;-89
2022/03/30 16:20:22;;;;;;;21.35;11.85;;;12.10;86.60;;;;;;5041783;28;20756;-89
2022/03/30 16:23:25;;;;;;;20.52;11.50;;;12.20;85.40;;;;;;5035941;28;20809;-88
2022/03/30 16:25:54;;;;;;;25.50;12.20;;;12.10;85.20;;;;;;5024457;28;20268;-88
2022/03/30 16:28:26;;;;;;;23.80;11.60;;;11.90;87.10;;;;;;5035985;28;20216;-91
2022/03/30 16:30:58;;;;;;;21.17;11.98;;;11.90;88.70;;;;;;5046811;28;20229;-90
2022/03/30 16:33:30;;;;;;;25.80;11.75;;;12.00;87.70;;;;;;5038314;28;20642;-90
2022/03/30 16:36:26;;;;;;;23.33;11.50;;;11.80;87.70;;;;;;5030979;28;20229;-90
2022/03/30 16:39:20;;;;;;;22.98;11.48;;;11.90;88.50;;;;;;5030575;28;20214;-89
2022/03/30 16:41:49;;;;;;;21.73;11.88;;;11.90;88.80;;;;;;5034797;28;20192;-90
2022/03/30 16:44:19;;;;;;;16.58;11.80;;;11.90;88.30;;;;;;5040711;28;20226;-89
2022/03/30 16:49:30;;;;;;;20.77;11.93;;;11.70;90.30;;;;;;5040831;28;20219;-89
2022/03/30 16:52:07;;;;;;;24.17;11.85;;;11.70;90.30;;;;;;5032392;28;20207;-89
2022/03/30 16:55:00;;;;;;;18.73;11.73;;;11.70;90.40;;;;;;5045120;28;20354;-89
2022/03/30 16:57:28;;;;;;;18.75;11.98;;;11.70;89.60;;;;;;5027165;28;20249;-88
2022/03/30 17:03:24;;;;;;;20.17;12.40;;;11.70;89.40;;;;;;5040940;28;20209;-89
2022/03/30 17:16:15;;;;;;;21.38;12.55;;;11.60;90.60;;;;;;5046710;28;20213;-89
2022/03/30 17:22:34;;;;;;;22.50;12.73;;;11.40;90.60;;;;;;4997998;28;20216;-89
2022/03/30 17:25:16;;;;;;;21.75;12.73;;;11.40;91.30;;;;;;5009835;28;20223;-88
2022/03/30 17:27:44;;;;;;;23.40;12.55;;;11.50;91.10;;;;;;4994908;28;20229;-88
2022/03/30 17:30:11;;;;;;;22.40;12.70;;;11.50;90.90;;;;;;5017666;28;20313;-87
2022/03/30 17:32:38;;;;;;;22.20;12.95;;;11.50;90.90;;;;;;5047692;28;20650;-88
2022/03/30 17:35:15;;;;;;;25.17;13.23;;;11.50;91.20;;;;;;5061466;28;20201;-87
2022/03/30 17:37:42;;;;;;;19.45;11.98;;;11.40;91.30;;;;;;5043558;28;20728;-87
2022/03/30 17:40:10;;;;;;;22.45;13.25;;;11.40;91.70;;;;;;5042901;28;20313;-87
2022/03/30 17:42:37;;;;;;;17.08;12.13;;;11.40;91.70;;;;;;5041903;28;20230;-87
2022/03/30 17:45:06;;;;;;;20.75;12.07;;;11.40;91.30;;;;;;5041759;28;20237;-88
2022/03/30 17:47:52;;;;;;;22.90;12.60;;;11.40;91.50;;;;;;5036387;28;20226;-88
2022/03/30 17:53:13;;;;;;;20.35;12.77;;;11.40;91.20;;;;;;5042506;28;20253;-86
2022/03/30 17:55:40;;;;;;;24.65;12.88;;;11.40;91.40;;;;;;5027573;28;20223;-88
2022/03/30 17:58:10;;;;;;;28.02;13.57;;;11.40;91.50;;;;;;5021160;28;20210;-86
2022/03/30 18:00:37;;;;;;;22.88;12.90;;;11.50;91.30;;;;;;5016411;28;20246;-88
2022/03/30 18:03:04;;;;;;;20.08;12.65;;;11.50;91.40;;;;;;5023866;28;20212;-89
2022/03/30 18:05:33;;;;;;;23.83;12.55;;;11.40;91.00;;;;;;5015435;28;20318;-87
2022/03/30 18:08:00;;;;;;;19.98;12.10;;;11.40;91.10;;;;;;5023793;28;20219;-87
2022/03/30 18:10:27;;;;;;;21.73;13.13;;;11.30;91.40;;;;;;5018455;28;20339;-88
2022/03/30 18:13:03;;;;;;;22.08;12.48;;;11.20;91.40;;;;;;5017006;28;20235;-88
2022/03/30 18:15:30;;;;;;;19.40;12.30;;;11.10;91.80;;;;;;5032529;28;20589;-88
2022/03/30 18:17:57;;;;;;;25.20;13.60;;;11.00;92.40;;;;;;5020622;28;20255;-88
2022/03/30 18:24:01;;;;;;;26.50;12.07;;;11.10;92.80;;;;;;5025817;28;20329;-88
2022/03/30 18:30:19;;;;;;;19.85;12.70;;;11.20;92.20;;;;;;5023076;28;20242;-87
2022/03/30 18:36:17;;;;;;;17.20;12.13;;;11.10;92.20;;;;;;5011467;28;20285;-87
2022/03/30 18:39:03;;;;;;;19.60;13.13;;;11.10;92.60;;;;;;5011788;28;20271;-87
2022/03/30 18:42:02;;;;;;;20.27;12.77;;;11.10;92.60;;;;;;4997494;28;20291;-87
2022/03/30 18:48:12;;;;;;;25.55;13.57;;;11.10;92.30;;;;;;5022666;28;20239;-87
2022/03/30 18:57:34;;;;;;;24.23;12.85;;;11.00;92.90;;;;;;5031762;28;20187;-86
2022/03/30 19:10:30;;;;;;;10.63;6.07;;;10.80;90.50;;;;;;5018345;28;20277;-88
2022/03/30 19:13:18;;;;;;;7.47;5.22;;;10.70;86.50;;;;;;5034207;28;20278;-87
2022/03/30 20:23:46;;;;;;;5.28;3.40;;;9.60;87.80;;;;;;5016501;28;20589;-88
2022/03/30 20:26:13;;;;;;;8.07;3.92;;;9.60;88.30;;;;;;5002675;28;20596;-88
2022/03/30 20:28:42;;;;;;;4.90;3.17;;;9.50;88.30;;;;;;5022362;28;20227;-87
2022/03/30 20:31:13;;;;;;;5.85;3.63;;;9.40;89.90;;;;;;4995122;28;20239;-88
2022/03/30 20:37:31;;;;;;;4.57;3.40;;;9.20;90.50;;;;;;5017153;28;20245;-88
2022/03/30 20:42:42;;;;;;;4.90;3.42;;;9.20;90.50;;;;;;4998738;28;20219;-89
2022/03/30 21:27:07;;;;;;;7.60;5.55;;;8.90;92.10;;;;;;5028163;28;20265;-87
2022/03/30 21:39:07;;;;;;;9.68;6.32;;;9.10;91.70;;;;;;5012983;28;20255;-87
2022/03/30 21:55:05;;;;;;;10.20;7.45;;;9.10;92.30;;;;;;5037631;28;20637;-87
2022/03/30 21:57:43;;;;;;;10.93;7.95;;;9.20;92.40;;;;;;5040431;28;20229;-88
2022/03/30 22:00:20;;;;;;;11.68;7.93;;;9.30;91.80;;;;;;5040429;28;20265;-87
2022/03/30 22:02:51;;;;;;;10.95;8.18;;;9.40;91.90;;;;;;5024334;28;20190;-88
2022/03/30 22:06:04;;;;;;;9.38;8.30;;;9.40;91.60;;;;;;5051750;28;20201;-87
2022/03/30 22:08:59;;;;;;;13.63;9.35;;;9.30;92.20;;;;;;5018868;28;20634;-88
2022/03/30 22:11:27;;;;;;;12.98;9.10;;;9.40;92.40;;;;;;5000084;28;20294;-88
2022/03/30 22:13:58;;;;;;;15.27;9.98;;;9.30;92.50;;;;;;5004659;28;20203;-87
2022/03/30 22:16:26;;;;;;;12.65;10.18;;;9.10;92.90;;;;;;5012826;28;20202;-88
2022/03/30 22:18:59;;;;;;;12.23;10.27;;;9.10;93.20;;;;;;5024896;28;20191;-87
2022/03/30 22:21:33;;;;;;;15.50;9.73;;;9.20;93.20;;;;;;5027763;28;20223;-88
2022/03/30 22:24:02;;;;;;;12.07;10.05;;;9.30;93.00;;;;;;5027597;28;20221;-88
2022/03/30 22:26:29;;;;;;;11.88;10.43;;;9.30;92.80;;;;;;5043816;28;20604;-88
